createdAt,value
2023-05-05T05:03:06.457Z,96265.00
2023-05-05T05:04:07.343Z,96267.00
2023-05-05T05:05:07.412Z,96265.00
2023-05-05T05:06:06.505Z,96267.00
2023-05-05T05:07:06.523Z,96267.00
2023-05-05T05:08:06.410Z,96269.00
2023-05-05T05:09:07.555Z,96269.00
2023-05-05T05:10:06.713Z,96271.00
2023-05-05T05:11:06.572Z,96271.00
2023-05-05T05:12:07.698Z,96273.00
2023-05-05T05:13:06.732Z,96275.00
2023-05-05T05:14:07.736Z,96279.00
2023-05-05T05:15:06.647Z,96277.00
2023-05-05T05:16:07.807Z,96279.00
2023-05-05T05:17:06.723Z,96279.00
2023-05-05T05:18:06.778Z,96277.00
2023-05-05T05:19:07.789Z,96275.00
2023-05-05T05:20:06.921Z,96275.00
2023-05-05T05:21:06.811Z,96277.00
2023-05-05T05:22:07.739Z,96283.00
2023-05-05T05:23:06.788Z,96279.00
2023-05-05T05:24:06.880Z,96283.00
2023-05-05T05:25:07.782Z,96281.00
2023-05-05T05:26:07.865Z,96273.00
2023-05-05T05:27:09.713Z,96283.00
2023-05-05T05:28:10.762Z,96275.00
2023-05-05T05:29:06.854Z,96275.00
2023-05-05T05:30:07.246Z,96271.00
2023-05-05T05:31:06.857Z,96271.00
2023-05-05T05:32:07.034Z,96269.00
2023-05-05T05:33:06.930Z,96271.00
2023-05-05T05:34:06.760Z,96269.00
2023-05-05T05:35:06.868Z,96269.00
2023-05-05T05:36:06.856Z,96271.00
2023-05-05T05:37:07.757Z,96271.00
2023-05-05T05:38:06.828Z,96269.00
2023-05-05T05:39:06.813Z,96271.00
2023-05-05T05:40:07.083Z,96273.00
2023-05-05T05:41:06.761Z,96273.00
2023-05-05T05:42:06.713Z,96271.00
2023-05-05T05:43:07.748Z,96273.00
2023-05-05T05:44:07.706Z,96273.00
2023-05-05T05:45:06.699Z,96273.00
2023-05-05T05:46:09.031Z,96273.00
2023-05-05T05:47:06.916Z,96273.00
2023-05-05T05:48:08.058Z,96273.00
2023-05-05T05:49:06.988Z,96277.00
2023-05-05T05:50:08.281Z,96279.00
2023-05-05T05:51:07.039Z,96279.00
2023-05-05T05:52:07.049Z,96281.00
2023-05-05T05:53:07.043Z,96275.00
2023-05-05T05:54:08.087Z,96277.00
2023-05-05T05:55:07.095Z,96279.00
2023-05-05T05:56:08.128Z,96279.00
2023-05-05T05:57:07.162Z,96279.00
2023-05-05T05:58:07.182Z,96279.00
2023-05-05T05:59:07.168Z,96279.00
2023-05-05T06:00:07.357Z,96279.00
2023-05-05T06:01:07.227Z,96275.00
2023-05-05T06:02:07.494Z,96275.00
2023-05-05T06:03:07.324Z,96275.00
2023-05-05T06:04:07.599Z,96271.00
2023-05-05T06:05:07.248Z,96269.00
2023-05-05T06:06:08.339Z,96267.00
2023-05-05T06:07:08.380Z,96269.00
2023-05-05T06:08:07.391Z,96269.00
2023-05-05T06:09:07.329Z,96267.00
2023-05-05T06:10:25.199Z,96267.00
2023-05-05T06:11:08.394Z,96265.00
2023-05-05T06:12:07.402Z,96267.00
2023-05-05T06:13:07.345Z,96265.00
2023-05-05T06:14:08.407Z,96263.00
2023-05-05T06:15:07.379Z,96269.00
2023-05-05T06:16:07.498Z,96269.00
2023-05-05T06:17:07.382Z,96269.00
2023-05-05T06:18:07.651Z,96265.00
2023-05-05T06:19:07.351Z,96273.00
2023-05-05T06:20:08.453Z,96269.00
2023-05-05T06:21:07.308Z,96267.00
2023-05-05T06:22:07.351Z,96265.00
2023-05-05T06:23:07.345Z,96261.00
2023-05-05T06:24:07.319Z,96265.00
2023-05-05T06:25:07.293Z,96263.00
2023-05-05T06:26:08.250Z,96261.00
2023-05-05T06:27:07.406Z,96259.00
2023-05-05T06:28:07.316Z,96257.00
2023-05-05T06:29:07.342Z,96255.00
2023-05-05T06:30:07.562Z,96251.00
2023-05-05T06:31:07.379Z,96251.00
2023-05-05T06:32:07.417Z,96251.00
2023-05-05T06:33:07.434Z,96253.00
2023-05-05T06:34:08.561Z,96251.00
2023-05-05T06:35:07.601Z,96249.00
2023-05-05T06:36:07.609Z,96249.00
2023-05-05T06:37:08.656Z,96251.00
2023-05-05T06:38:07.663Z,96251.00
2023-05-05T06:39:08.816Z,96255.00
2023-05-05T06:40:08.088Z,96257.00
2023-05-05T06:41:07.864Z,96257.00
2023-05-05T06:42:08.929Z,96255.00
2023-05-05T06:43:07.952Z,96257.00
2023-05-05T06:44:09.051Z,96255.00
2023-05-05T06:45:08.098Z,96251.00
2023-05-05T06:46:08.038Z,96251.00
2023-05-05T06:47:09.199Z,96251.00
2023-05-05T06:48:08.416Z,96253.00
2023-05-05T06:49:08.251Z,96255.00
2023-05-05T06:50:08.443Z,96255.00
2023-05-05T06:51:08.253Z,96255.00
2023-05-05T06:52:08.410Z,96255.00
2023-05-05T06:53:08.359Z,96251.00
2023-05-05T06:54:08.414Z,96251.00
2023-05-05T06:55:08.580Z,96245.00
2023-05-05T06:56:08.530Z,96247.00
2023-05-05T06:57:08.962Z,96247.00
2023-05-05T06:58:08.629Z,96245.00
2023-05-05T06:59:08.652Z,96247.00
2023-05-05T07:00:08.912Z,96244.00
2023-05-05T07:01:08.782Z,96244.00
2023-05-05T07:02:09.757Z,96245.00
2023-05-05T07:03:08.874Z,96245.00
2023-05-05T07:04:08.906Z,96244.00
2023-05-05T07:05:10.176Z,96244.00
2023-05-05T07:06:08.964Z,96242.00
2023-05-05T07:07:08.936Z,96242.00
2023-05-05T07:08:09.032Z,96240.00
2023-05-05T07:09:08.979Z,96242.00
2023-05-05T07:10:09.309Z,96240.00
2023-05-05T07:11:09.204Z,96244.00
2023-05-05T07:12:09.140Z,96242.00
2023-05-05T07:13:09.307Z,96244.00
2023-05-05T07:14:10.165Z,96245.00
2023-05-05T07:15:26.075Z,96242.00
2023-05-05T07:16:10.283Z,96240.00
2023-05-05T07:17:09.215Z,96236.00
2023-05-05T07:18:09.232Z,96234.00
2023-05-05T07:19:10.181Z,96236.00
2023-05-05T07:20:10.440Z,96232.00
2023-05-05T07:21:09.168Z,96234.00
2023-05-05T07:22:10.167Z,96236.00
2023-05-05T07:23:10.158Z,96234.00
2023-05-05T07:24:09.144Z,96232.00
2023-05-05T07:25:10.204Z,96232.00
2023-05-05T07:26:09.164Z,96232.00
2023-05-05T07:27:09.240Z,96228.00
2023-05-05T07:28:10.122Z,96232.00
2023-05-05T07:29:09.160Z,96232.00
2023-05-05T07:30:13.989Z,96228.00
2023-05-05T07:31:10.134Z,96228.00
2023-05-05T07:32:09.078Z,96232.00
2023-05-05T07:33:10.166Z,96230.00
2023-05-05T07:34:10.134Z,96228.00
2023-05-05T07:35:09.081Z,96226.00
2023-05-05T07:36:09.119Z,96226.00
2023-05-05T07:37:09.115Z,96230.00
2023-05-05T07:38:10.855Z,96226.00
2023-05-05T07:39:09.070Z,96226.00
2023-05-05T07:40:10.406Z,96224.00
2023-05-05T07:41:09.063Z,96224.00
2023-05-05T07:42:10.080Z,96226.00
2023-05-05T07:43:09.237Z,96224.00
2023-05-05T07:44:09.041Z,96222.00
2023-05-05T07:45:08.991Z,96220.00
2023-05-05T07:46:09.293Z,96216.00
2023-05-05T07:47:08.962Z,96216.00
2023-05-05T07:48:09.509Z,96212.00
2023-05-05T07:49:09.002Z,96214.00
2023-05-05T07:50:09.293Z,96212.00
2023-05-05T07:51:09.983Z,96210.00
2023-05-05T07:52:08.953Z,96212.00
2023-05-05T07:53:14.453Z,96206.00
2023-05-05T07:54:10.020Z,96212.00
2023-05-05T07:55:09.951Z,96208.00
2023-05-05T07:56:09.956Z,96206.00
2023-05-05T07:57:09.988Z,96206.00
2023-05-05T07:58:08.942Z,96204.00
2023-05-05T07:59:09.074Z,96202.00
2023-05-05T08:00:09.305Z,96200.00
2023-05-05T08:01:08.987Z,96197.00
2023-05-05T08:02:09.066Z,96197.00
2023-05-05T08:03:11.518Z,96197.00
2023-05-05T08:04:09.152Z,96197.00
2023-05-05T08:05:09.792Z,96197.00
2023-05-05T08:06:09.071Z,96193.00
2023-05-05T08:07:09.032Z,96195.00
2023-05-05T08:08:09.001Z,96193.00
2023-05-05T08:09:09.981Z,96195.00
2023-05-05T08:10:09.980Z,96195.00
2023-05-05T08:11:10.015Z,96195.00
2023-05-05T08:12:08.956Z,96195.00
2023-05-05T08:13:10.074Z,96193.00
2023-05-05T08:14:08.963Z,96191.00
2023-05-05T08:15:10.467Z,96193.00
2023-05-05T08:16:09.009Z,96195.00
2023-05-05T08:17:08.957Z,96193.00
2023-05-05T08:18:08.918Z,96193.00
2023-05-05T08:19:21.121Z,96189.00
2023-05-05T08:20:11.015Z,96189.00
2023-05-05T08:21:09.988Z,96175.00
2023-05-05T08:22:08.939Z,96183.00
2023-05-05T08:23:08.935Z,96183.00
2023-05-05T08:24:09.894Z,96175.00
2023-05-05T08:25:09.162Z,96173.00
2023-05-05T08:26:08.868Z,96171.00
2023-05-05T08:27:08.953Z,96173.00
2023-05-05T08:28:08.951Z,96171.00
2023-05-05T08:29:08.917Z,96173.00
2023-05-05T08:30:08.822Z,96175.00
2023-05-05T08:31:09.998Z,96169.00
2023-05-05T08:32:08.917Z,96171.00
2023-05-05T08:33:08.849Z,96171.00
2023-05-05T08:34:08.811Z,96171.00
2023-05-05T08:35:10.169Z,96171.00
2023-05-05T08:36:08.845Z,96165.00
2023-05-05T08:37:09.850Z,96167.00
2023-05-05T08:38:08.904Z,96165.00
2023-05-05T08:39:08.891Z,96167.00
2023-05-05T08:40:08.933Z,96163.00
2023-05-05T08:41:08.897Z,96167.00
2023-05-05T08:42:09.984Z,96163.00
2023-05-05T08:43:09.473Z,96159.00
2023-05-05T08:44:09.022Z,96163.00
2023-05-05T08:45:09.569Z,96155.00
2023-05-05T08:46:09.096Z,96159.00
2023-05-05T08:47:09.400Z,96159.00
2023-05-05T08:48:09.120Z,96157.00
2023-05-05T08:49:10.274Z,96159.00
2023-05-05T08:50:10.166Z,96157.00
2023-05-05T08:51:09.183Z,96153.00
2023-05-05T08:52:09.225Z,96155.00
2023-05-05T08:53:09.225Z,96157.00
2023-05-05T08:54:10.220Z,96155.00
2023-05-05T08:55:10.374Z,96153.00
2023-05-05T08:56:09.288Z,96151.00
2023-05-05T08:57:10.305Z,96153.00
2023-05-05T08:58:10.226Z,96153.00
2023-05-05T08:59:10.462Z,96157.00
2023-05-05T09:00:09.222Z,96153.00
2023-05-05T09:01:09.326Z,96155.00
2023-05-05T09:02:09.332Z,96153.00
2023-05-05T09:03:09.444Z,96151.00
2023-05-05T09:04:09.302Z,96149.00
2023-05-05T09:05:09.578Z,96151.00
2023-05-05T09:06:10.305Z,96151.00
2023-05-05T09:07:09.261Z,96147.00
2023-05-05T09:08:10.350Z,96149.00
2023-05-05T09:09:09.427Z,96147.00
2023-05-05T09:10:09.420Z,96145.00
2023-05-05T09:11:10.352Z,96144.00
2023-05-05T09:12:09.366Z,96145.00
2023-05-05T09:13:09.545Z,96142.00
2023-05-05T09:14:09.404Z,96140.00
2023-05-05T09:15:10.660Z,96140.00
2023-05-05T09:16:09.478Z,96136.00
2023-05-05T09:17:09.546Z,96136.00
2023-05-05T09:18:10.498Z,96134.00
2023-05-05T09:19:09.631Z,96134.00
2023-05-05T09:20:09.504Z,96134.00
2023-05-05T09:21:10.480Z,96132.00
2023-05-05T09:22:10.500Z,96130.00
2023-05-05T09:23:10.583Z,96128.00
2023-05-05T09:24:09.859Z,96128.00
2023-05-05T09:25:09.811Z,96126.00
2023-05-05T09:26:10.618Z,96124.00
2023-05-05T09:27:09.599Z,96122.00
2023-05-05T09:28:09.672Z,96118.00
2023-05-05T09:29:09.690Z,96120.00
2023-05-05T09:30:09.709Z,96118.00
2023-05-05T09:31:09.680Z,96116.00
2023-05-05T09:32:10.717Z,96114.00
2023-05-05T09:33:09.767Z,96116.00
2023-05-05T09:34:09.750Z,96112.00
2023-05-05T09:35:09.906Z,96108.00
2023-05-05T09:36:09.689Z,96110.00
2023-05-05T09:37:10.774Z,96106.00
2023-05-05T09:38:09.794Z,96106.00
2023-05-05T09:39:09.786Z,96106.00
2023-05-05T09:40:09.934Z,96104.00
2023-05-05T09:41:09.786Z,96104.00
2023-05-05T09:42:09.763Z,96100.00
2023-05-05T09:43:09.732Z,96100.00
2023-05-05T09:44:10.830Z,96098.00
2023-05-05T09:45:09.990Z,96098.00
2023-05-05T09:46:10.837Z,96100.00
2023-05-05T09:47:25.981Z,96102.00
2023-05-05T09:48:10.816Z,96100.00
2023-05-05T09:49:09.941Z,96100.00
2023-05-05T09:50:10.744Z,96100.00
2023-05-05T09:51:10.925Z,96096.00
2023-05-05T09:52:09.707Z,96096.00
2023-05-05T09:53:09.695Z,96096.00
2023-05-05T09:54:10.931Z,96094.00
2023-05-05T09:55:09.750Z,96096.00
2023-05-05T09:56:09.740Z,96096.00
2023-05-05T09:57:09.687Z,96098.00
2023-05-05T09:58:10.763Z,96096.00
2023-05-05T09:59:09.681Z,96094.00
2023-05-05T10:00:10.862Z,96094.00
2023-05-05T10:01:10.774Z,96090.00
2023-05-05T10:02:09.745Z,96090.00
2023-05-05T10:03:09.714Z,96089.00
2023-05-05T10:04:09.689Z,96089.00
2023-05-05T10:05:09.924Z,96092.00
2023-05-05T10:06:10.663Z,96087.00
2023-05-05T10:07:09.724Z,96087.00
2023-05-05T10:08:09.608Z,96085.00
2023-05-05T10:09:10.604Z,96083.00
2023-05-05T10:10:10.839Z,96081.00
2023-05-05T10:11:09.631Z,96083.00
2023-05-05T10:12:10.717Z,96085.00
2023-05-05T10:13:09.671Z,96085.00
2023-05-05T10:14:09.689Z,96079.00
2023-05-05T10:15:09.590Z,96077.00
2023-05-05T10:16:10.597Z,96079.00
2023-05-05T10:17:09.571Z,96079.00
2023-05-05T10:18:09.616Z,96077.00
2023-05-05T10:19:09.606Z,96073.00
2023-05-05T10:20:10.672Z,96075.00
2023-05-05T10:21:09.510Z,96071.00
2023-05-05T10:22:09.566Z,96071.00
2023-05-05T10:23:09.527Z,96067.00
2023-05-05T10:24:10.557Z,96067.00
2023-05-05T10:25:09.495Z,96067.00
2023-05-05T10:26:10.516Z,96069.00
2023-05-05T10:27:11.568Z,96065.00
2023-05-05T10:28:10.505Z,96065.00
2023-05-05T10:29:10.500Z,96061.00
2023-05-05T10:30:10.811Z,96061.00
2023-05-05T10:31:24.532Z,96061.00
2023-05-05T10:32:33.469Z,96059.00
2023-05-05T10:33:30.174Z,96055.00
2023-05-05T10:34:10.668Z,96053.00
2023-05-05T10:35:10.493Z,96051.00
2023-05-05T10:36:09.494Z,96047.00
2023-05-05T10:37:09.454Z,96049.00
2023-05-05T10:38:09.461Z,96047.00
2023-05-05T10:39:09.602Z,96043.00
2023-05-05T10:40:09.748Z,96045.00
2023-05-05T10:41:10.388Z,96042.00
2023-05-05T10:42:10.378Z,96040.00
2023-05-05T10:43:10.590Z,96036.00
2023-05-05T10:44:09.536Z,96036.00
2023-05-05T10:45:09.505Z,96034.00
2023-05-05T10:46:09.451Z,96032.00
2023-05-05T10:47:09.417Z,96030.00
2023-05-05T10:48:09.410Z,96030.00
2023-05-05T10:49:12.919Z,96028.00
2023-05-05T10:50:09.490Z,96028.00
2023-05-05T10:51:09.331Z,96024.00
2023-05-05T10:52:09.306Z,96024.00
2023-05-05T10:53:09.306Z,96018.00
2023-05-05T10:54:10.407Z,96020.00
2023-05-05T10:55:09.370Z,96018.00
2023-05-05T10:56:09.298Z,96014.00
2023-05-05T10:57:10.444Z,96014.00
2023-05-05T10:58:09.335Z,96012.00
2023-05-05T10:59:10.334Z,96012.00
2023-05-05T11:00:09.561Z,96012.00
2023-05-05T11:01:09.333Z,96010.00
2023-05-05T11:02:09.290Z,96012.00
2023-05-05T11:03:09.317Z,96008.00
2023-05-05T11:04:10.356Z,96002.00
2023-05-05T11:05:10.309Z,96000.00
2023-05-05T11:06:09.274Z,95998.00
2023-05-05T11:07:13.755Z,95998.00
2023-05-05T11:08:09.243Z,95996.00
2023-05-05T11:09:09.251Z,95998.00
2023-05-05T11:10:09.585Z,95995.00
2023-05-05T11:11:09.335Z,95993.00
2023-05-05T11:12:09.256Z,95991.00
2023-05-05T11:13:10.256Z,95989.00
2023-05-05T11:14:09.166Z,95989.00
2023-05-05T11:15:10.165Z,95985.00
2023-05-05T11:16:09.210Z,95985.00
2023-05-05T11:17:09.271Z,95983.00
2023-05-05T11:18:10.228Z,95981.00
2023-05-05T11:19:10.270Z,95981.00
2023-05-05T11:20:09.392Z,95977.00
2023-05-05T11:21:10.236Z,95977.00
2023-05-05T11:22:09.292Z,95977.00
2023-05-05T11:23:09.316Z,95975.00
2023-05-05T11:24:10.336Z,95975.00
2023-05-05T11:25:09.324Z,95973.00
2023-05-05T11:26:09.309Z,95969.00
2023-05-05T11:27:10.372Z,95969.00
2023-05-05T11:28:10.522Z,95967.00
2023-05-05T11:29:10.363Z,95967.00
2023-05-05T11:30:09.736Z,95963.00
2023-05-05T11:31:09.380Z,95963.00
2023-05-05T11:32:10.424Z,95957.00
2023-05-05T11:33:09.547Z,95963.00
2023-05-05T11:34:10.469Z,95955.00
2023-05-05T11:35:09.497Z,95955.00
2023-05-05T11:36:10.449Z,95955.00
2023-05-05T11:37:10.457Z,95951.00
2023-05-05T11:38:10.615Z,95951.00
2023-05-05T11:39:09.544Z,95951.00
2023-05-05T11:40:10.253Z,95948.00
2023-05-05T11:41:10.628Z,95948.00
2023-05-05T11:42:11.016Z,95948.00
2023-05-05T11:43:10.607Z,95948.00
2023-05-05T11:44:10.590Z,95944.00
2023-05-05T11:45:09.708Z,95940.00
2023-05-05T11:46:09.705Z,95938.00
2023-05-05T11:47:10.673Z,95940.00
2023-05-05T11:48:10.744Z,95938.00
2023-05-05T11:49:10.624Z,95936.00
2023-05-05T11:50:09.843Z,95934.00
2023-05-05T11:51:09.719Z,95932.00
2023-05-05T11:52:09.785Z,95932.00
2023-05-05T11:53:10.803Z,95930.00
2023-05-05T11:54:10.820Z,95928.00
2023-05-05T11:55:09.823Z,95918.00
2023-05-05T11:56:09.873Z,95918.00
2023-05-05T11:57:09.830Z,95918.00
2023-05-05T11:58:09.875Z,95926.00
2023-05-05T11:59:10.048Z,95918.00
2023-05-05T12:00:10.311Z,95918.00
2023-05-05T12:01:10.993Z,95914.00
2023-05-05T12:02:10.015Z,95914.00
2023-05-05T12:03:10.065Z,95914.00
2023-05-05T12:04:10.248Z,95912.00
2023-05-05T12:05:11.143Z,95910.00
2023-05-05T12:06:10.049Z,95908.00
2023-05-05T12:07:11.070Z,95908.00
2023-05-05T12:08:10.176Z,95906.00
2023-05-05T12:09:10.188Z,95904.00
2023-05-05T12:10:10.456Z,95902.00
2023-05-05T12:11:10.283Z,95902.00
2023-05-05T12:12:10.277Z,95900.00
2023-05-05T12:13:11.457Z,95902.00
2023-05-05T12:14:10.426Z,95898.00
2023-05-05T12:15:10.524Z,95898.00
2023-05-05T12:16:11.526Z,95898.00
2023-05-05T12:17:10.593Z,95891.00
2023-05-05T12:18:11.622Z,95893.00
2023-05-05T12:19:10.733Z,95893.00
2023-05-05T12:20:11.275Z,95891.00
2023-05-05T12:21:10.818Z,95891.00
2023-05-05T12:22:10.884Z,95891.00
2023-05-05T12:23:11.889Z,95887.00
2023-05-05T12:24:11.956Z,95891.00
2023-05-05T12:25:11.054Z,95885.00
2023-05-05T12:26:11.006Z,95885.00
2023-05-05T12:27:11.080Z,95883.00
2023-05-05T12:28:12.183Z,95881.00
2023-05-05T12:29:11.236Z,95879.00
2023-05-05T12:30:11.338Z,95881.00
2023-05-05T12:31:11.552Z,95877.00
2023-05-05T12:32:11.406Z,95879.00
2023-05-05T12:33:12.373Z,95877.00
2023-05-05T12:34:12.438Z,95877.00
2023-05-05T12:35:11.588Z,95877.00
2023-05-05T12:36:11.611Z,95875.00
2023-05-05T12:37:12.642Z,95875.00
2023-05-05T12:38:11.680Z,95873.00
2023-05-05T12:39:11.714Z,95875.00
2023-05-05T12:40:12.781Z,95871.00
2023-05-05T12:41:11.871Z,95869.00
2023-05-05T12:42:12.952Z,95867.00
2023-05-05T12:43:12.005Z,95867.00
2023-05-05T12:44:12.054Z,95861.00
2023-05-05T12:45:13.175Z,95861.00
2023-05-05T12:46:13.167Z,95865.00
2023-05-05T12:47:12.262Z,95859.00
2023-05-05T12:48:12.250Z,95855.00
2023-05-05T12:49:12.422Z,95857.00
2023-05-05T12:50:13.425Z,95857.00
2023-05-05T12:51:13.434Z,95855.00
2023-05-05T12:52:12.451Z,95857.00
2023-05-05T12:53:12.589Z,95855.00
2023-05-05T12:54:12.556Z,95851.00
2023-05-05T12:55:12.635Z,95851.00
2023-05-05T12:56:12.761Z,95851.00
2023-05-05T12:57:12.838Z,95849.00
2023-05-05T12:58:12.836Z,95842.00
2023-05-05T12:59:12.894Z,95844.00
2023-05-05T13:00:12.893Z,95840.00
2023-05-05T13:01:12.985Z,95838.00
2023-05-05T13:02:13.009Z,95838.00
2023-05-05T13:03:13.207Z,95836.00
2023-05-05T13:04:13.117Z,95834.00
2023-05-05T13:05:13.261Z,95832.00
2023-05-05T13:06:13.364Z,95830.00
2023-05-05T13:07:13.387Z,95828.00
2023-05-05T13:08:13.406Z,95824.00
2023-05-05T13:09:14.500Z,95822.00
2023-05-05T13:10:14.562Z,95824.00
2023-05-05T13:11:13.539Z,95818.00
2023-05-05T13:12:14.688Z,95820.00
2023-05-05T13:13:13.808Z,95818.00
2023-05-05T13:14:14.750Z,95818.00
2023-05-05T13:15:14.901Z,95816.00
2023-05-05T13:16:14.012Z,95814.00
2023-05-05T13:17:15.038Z,95812.00
2023-05-05T13:18:15.076Z,95812.00
2023-05-05T13:19:14.289Z,95810.00
2023-05-05T13:20:15.079Z,95808.00
2023-05-05T13:21:14.310Z,95810.00
2023-05-05T13:22:15.264Z,95806.00
2023-05-05T13:23:14.364Z,95802.00
2023-05-05T13:24:26.087Z,95802.00
2023-05-05T13:25:15.407Z,95802.00
2023-05-05T13:26:14.380Z,95801.00
2023-05-05T13:27:15.397Z,95797.00
2023-05-05T13:28:14.421Z,95797.00
2023-05-05T13:29:15.412Z,95795.00
2023-05-05T13:30:15.313Z,95793.00
2023-05-05T13:31:14.432Z,95793.00
2023-05-05T13:32:14.427Z,95789.00
2023-05-05T13:33:14.341Z,95787.00
2023-05-05T13:34:15.436Z,95787.00
2023-05-05T13:35:16.417Z,95783.00
2023-05-05T13:36:14.546Z,95783.00
2023-05-05T13:37:14.531Z,95779.00
2023-05-05T13:38:15.658Z,95779.00
2023-05-05T13:39:15.754Z,95779.00
2023-05-05T13:40:14.677Z,95775.00
2023-05-05T13:41:15.889Z,95775.00
2023-05-05T13:42:15.815Z,95773.00
2023-05-05T13:43:15.960Z,95771.00
2023-05-05T13:44:15.985Z,95771.00
2023-05-05T13:45:15.081Z,95767.00
2023-05-05T13:46:20.133Z,95765.00
2023-05-05T13:47:15.161Z,95765.00
2023-05-05T13:48:16.142Z,95763.00
2023-05-05T13:49:15.099Z,95765.00
2023-05-05T13:50:15.240Z,95759.00
2023-05-05T13:51:15.384Z,95757.00
2023-05-05T13:52:15.291Z,95757.00
2023-05-05T13:53:16.322Z,95755.00
2023-05-05T13:54:16.396Z,95752.00
2023-05-05T13:55:16.516Z,95752.00
2023-05-05T13:56:15.549Z,95750.00
2023-05-05T13:57:15.637Z,95748.00
2023-05-05T13:58:15.673Z,95746.00
2023-05-05T13:59:15.805Z,95742.00
2023-05-05T14:00:16.838Z,95742.00
2023-05-05T14:01:17.059Z,95740.00
2023-05-05T14:02:15.986Z,95736.00
2023-05-05T14:03:16.019Z,95738.00
2023-05-05T14:04:16.127Z,95736.00
2023-05-05T14:05:16.088Z,95734.00
2023-05-05T14:06:16.236Z,95734.00
2023-05-05T14:07:16.415Z,95732.00
2023-05-05T14:08:16.288Z,95728.00
2023-05-05T14:09:16.329Z,95726.00
2023-05-05T14:10:16.434Z,95726.00
2023-05-05T14:11:17.531Z,95726.00
2023-05-05T14:12:16.529Z,95726.00
2023-05-05T14:13:17.749Z,95718.00
2023-05-05T14:14:17.646Z,95718.00
2023-05-05T14:15:17.769Z,95718.00
2023-05-05T14:16:16.829Z,95714.00
2023-05-05T14:17:16.862Z,95716.00
2023-05-05T14:18:17.928Z,95718.00
2023-05-05T14:19:16.966Z,95716.00
2023-05-05T14:20:17.062Z,95716.00
2023-05-05T14:21:18.061Z,95716.00
2023-05-05T14:22:17.160Z,95712.00
2023-05-05T14:23:18.324Z,95714.00
2023-05-05T14:24:17.268Z,95710.00
2023-05-05T14:25:17.365Z,95710.00
2023-05-05T14:26:17.406Z,95708.00
2023-05-05T14:27:18.455Z,95710.00
2023-05-05T14:28:18.531Z,95707.00
2023-05-05T14:29:17.581Z,95707.00
2023-05-05T14:30:18.678Z,95708.00
2023-05-05T14:31:17.806Z,95708.00
2023-05-05T14:32:17.961Z,95705.00
2023-05-05T14:33:17.772Z,95705.00
2023-05-05T14:34:17.894Z,95703.00
2023-05-05T14:35:17.873Z,95707.00
2023-05-05T14:36:19.020Z,95705.00
2023-05-05T14:37:19.019Z,95705.00
2023-05-05T14:38:18.064Z,95707.00
2023-05-05T14:39:19.182Z,95705.00
2023-05-05T14:40:18.203Z,95703.00
2023-05-05T14:41:19.200Z,95703.00
2023-05-05T14:42:18.301Z,95703.00
2023-05-05T14:43:18.396Z,95703.00
2023-05-05T14:44:18.416Z,95701.00
2023-05-05T14:45:18.485Z,95705.00
2023-05-05T14:46:18.591Z,95699.00
2023-05-05T14:47:18.553Z,95705.00
2023-05-05T14:48:18.572Z,95703.00
2023-05-05T14:49:18.630Z,95701.00
2023-05-05T14:50:18.784Z,95701.00
2023-05-05T14:51:19.875Z,95699.00
2023-05-05T14:52:18.809Z,95699.00
2023-05-05T14:53:19.901Z,95697.00
2023-05-05T14:54:27.791Z,95697.00
2023-05-05T14:55:20.014Z,95695.00
2023-05-05T14:56:19.885Z,95695.00
2023-05-05T14:57:18.951Z,95697.00
2023-05-05T14:58:18.862Z,95697.00
2023-05-05T14:59:18.950Z,95693.00
2023-05-05T15:00:18.955Z,95693.00
2023-05-05T15:01:18.901Z,95693.00
2023-05-05T15:02:19.945Z,95689.00
2023-05-05T15:03:18.914Z,95691.00
2023-05-05T15:04:19.837Z,95689.00
2023-05-05T15:05:18.896Z,95691.00
2023-05-05T15:06:18.938Z,95689.00
2023-05-05T15:07:18.884Z,95687.00
2023-05-05T15:08:18.866Z,95687.00
2023-05-05T15:09:19.881Z,95687.00
2023-05-05T15:10:21.746Z,95687.00
2023-05-05T15:11:19.013Z,95683.00
2023-05-05T15:12:18.948Z,95687.00
2023-05-05T15:13:19.217Z,95685.00
2023-05-05T15:14:18.957Z,95685.00
2023-05-05T15:15:19.899Z,95687.00
2023-05-05T15:16:19.005Z,95687.00
2023-05-05T15:17:18.963Z,95685.00
2023-05-05T15:18:18.926Z,95683.00
2023-05-05T15:19:19.850Z,95683.00
2023-05-05T15:20:19.902Z,95685.00
2023-05-05T15:21:18.867Z,95685.00
2023-05-05T15:22:18.931Z,95685.00
2023-05-05T15:23:18.928Z,95683.00
2023-05-05T15:24:18.824Z,95683.00
2023-05-05T15:25:19.811Z,95687.00
2023-05-05T15:26:19.846Z,95683.00
2023-05-05T15:27:19.095Z,95679.00
2023-05-05T15:28:18.888Z,95681.00
2023-05-05T15:29:18.864Z,95675.00
